Station: Mackay  

  Atmospheric Gas Attenuation - ITU Rec 676-11   ----------------- dB/100km -----------------
Date Time Temp RH % AH g/m3 Dew Point Wind Direction Speed kph Gust kph Barometer mB Rainfall Since 9am 24GHz 47GHz 76GHz 122GHz 134GHz 241GHz
07/05 18:00 23.7 85 18.18 21 7 11 1014.8 0 39.3 39.2 74.7 197.6 216.2 750.7
07/05 17:50 23.7 84 17.97 20.8 7 9 1014.7 0 38.9 38.8 73.7 194.9 212.9 739.4
07/05 17:40 23.7 83 17.75 20.6 9 13 1014.6 0 38.4 38.3 72.7 192.2 209.6 727.6
07/05 17:30 23.8 84 18.07 20.9 9 15 1014.5 0 39.1 38.9 74.1 195.9 214.2 743.7
07/05 17:20 24 83 18.06 20.9 9 11 1014.4 0 39.1 38.8 73.8 195.2 213.4 741.1
07/05 17:10 24.2 83 18.26 21.1 6 7 1014.3 0 39.5 39.1 74.6 197.2 215.9 749.7
07/05 17:00 24.2 82 18.04 20.9 9 15 1014.2 0 39.0 38.6 73.5 194.4 212.5 738.0
07/05 16:50 24.4 83 18.47 21.3 11 13 1014.1 0 39.9 39.4 75.3 199.3 218.5 758.9
07/05 16:40 24.6 83 18.68 21.5 11 15 1013.9 0 40.3 39.7 76.1 201.3 221.1 768.0
07/05 16:30 24.7 82 18.56 21.4 11 19 1013.8 0 40.1 39.4 75.5 199.6 219.0 760.5
07/05 16:20 25 82 18.88 21.7 9 11 1013.8 0 40.7 39.8 76.7 202.8 223.0 774.6
07/05 16:10 24.9 80 18.31 21.2 13 19 1013.7 0 39.5 38.8 74.1 195.9 214.6 745.2
07/05 16:00 25.1 80 18.52 21.4 13 20 1013.6 0 39.9 39.1 74.9 198.0 217.2 754.3
07/05 15:50 25.3 82 19.2 22 7 9 1013.6 0 41.4 40.3 77.9 206.0 227.0 788.5
07/05 15:40 25.2 80 18.62 21.5 13 17 1013.7 0 40.1 39.2 75.2 199.0 218.4 758.6
07/05 15:30 25.2 80 18.62 21.5 15 22 1013.6 0 40.1 39.2 75.2 199.0 218.4 758.6
07/05 15:20 25.3 80 18.73 21.6 13 17 1013.7 0 40.4 39.4 75.6 200.1 219.8 763.5
07/05 15:10 25.4 79 18.6 21.5 15 24 1013.6 0 40.1 39.1 74.9 198.2 217.5 755.5
07/05 15:00 25.4 81 19.07 21.9 13 20 1013.6 0 41.1 40.0 77.1 204.1 224.7 780.5
07/05 14:50 25.5 80 18.94 21.8 13 15 1013.5 0 40.8 39.7 76.4 202.1 222.4 772.5
07/05 14:40 25.4 79 18.6 21.5 15 30 1013.5 0 40.1 39.1 74.9 198.2 217.5 755.5
07/05 14:30 25.3 80 18.73 21.6 17 24 1013.4 0 40.4 39.4 75.6 200.0 219.8 763.3
07/05 14:20 25.3 80 18.73 21.6 19 24 1013.4 0 40.4 39.4 75.6 200.0 219.8 763.3
07/05 14:10 25.8 82 19.74 22.5 15 19 1013.5 0 42.4 41.1 79.9 211.4 233.8 812.3
07/05 14:00 25.2 80 18.62 21.5 17 24 1013.6 0 40.1 39.2 75.2 199.0 218.4 758.6
07/05 13:50 25.6 78 18.57 21.5 15 20 1013.7 0 40.0 39.0 74.6 197.3 216.5 752.0
07/05 13:40 25.7 80 19.15 22 17 24 1013.8 0 41.2 40.0 77.2 204.3 225.1 781.8
07/05 13:30 25.5 79 18.7 21.6 15 24 1013.8 0 40.3 39.3 75.3 199.2 218.8 759.9
07/05 13:20 25.5 79 18.7 21.6 17 20 1013.9 0 40.3 39.3 75.3 199.2 218.8 760.0
07/05 13:10 25.9 81 19.61 22.4 11 20 1014 0 42.2 40.8 79.2 209.5 231.6 804.5
07/05 13:00 25.7 80 19.15 22 13 20 1014.1 0 41.2 40.0 77.2 204.3 225.1 782.0
07/05 12:50 25.7 79 18.91 21.8 13 17 1014.2 0 40.7 39.6 76.1 201.3 221.4 769.3
07/05 12:40 25.6 79 18.81 21.7 13 19 1014.4 0 40.5 39.4 75.8 200.4 220.2 765.1
07/05 12:30 26 80 19.48 22.3 13 20 1014.5 0 41.9 40.5 78.5 207.7 229.3 796.7
07/05 12:20 25.9 78 18.88 21.8 9 15 1014.5 0 40.6 39.4 75.8 200.5 220.4 765.8
07/05 12:10 25.9 78 18.88 21.8 15 20 1014.6 0 40.6 39.4 75.8 200.5 220.5 765.8
07/05 12:00 26.2 75 18.46 21.4 13 22 1014.6 0 39.7 38.5 73.6 194.6 213.3 740.8
07/05 11:50 26.1 75 18.36 21.3 15 19 1014.7 0 39.5 38.4 73.2 193.6 212.1 736.6
07/05 11:40 26.3 75 18.57 21.5 17 22 1014.8 0 39.9 38.7 74.0 195.7 214.6 745.7
07/05 11:30 26.3 75 18.57 21.5 13 24 1014.9 0 39.9 38.7 74.0 195.7 214.7 745.7
07/05 11:20 26.6 76 19.13 22 9 15 1015.1 0 41.1 39.6 76.3 201.8 222.3 772.2
07/05 11:10 26.1 76 18.61 21.5 13 19 1015.3 0 40.0 38.9 74.4 196.8 215.9 750.0
07/05 11:00 25.9 76 18.4 21.3 15 24 1015.4 0 39.6 38.6 73.6 194.7 213.3 741.0
07/05 10:50 25.8 77 18.54 21.5 15 19 1015.6 0 39.9 38.9 74.4 196.7 215.7 749.4
07/05 10:40 25.6 78 18.57 21.5 19 24 1015.6 0 40.0 39.1 74.7 197.6 216.8 753.0
07/05 10:30 25.5 80 18.94 21.8 17 24 1015.8 0 40.8 39.8 76.6 202.5 222.7 773.7
07/05 10:20 25.4 80 18.83 21.7 17 24 1015.9 0 40.5 39.6 76.2 201.4 221.4 768.9
07/05 10:10 25 80 18.42 21.3 17 20 1016 0 39.7 39.1 74.6 197.4 216.3 751.2
07/05 10:00 25.2 82 19.09 21.9 17 24 1015.9 0 41.1 40.2 77.6 205.2 226.0 784.9
07/05 09:50 25 82 18.88 21.7 15 17 1015.9 0 40.7 39.9 76.8 203.1 223.3 775.7
07/05 09:40 25 82 18.88 21.7 19 24 1016 0 40.7 39.9 76.8 203.1 223.3 775.7
07/05 09:30 24.8 84 19.12 21.9 17 26 1016 0 41.2 40.5 78.1 206.7 227.7 790.8
07/05 09:20 24.1 85 18.6 21.4 19 24 1016 0 40.2 39.8 76.4 202.0 221.7 769.9
07/05 09:10 24.2 87 19.14 21.9 13 17 1016 0 41.3 40.8 78.9 208.6 229.8 798.2
07/05 09:00 23.7 86 18.39 21.2 15 24 1015.8 0 39.8 39.6 75.8 200.4 219.6 762.5
07/05 08:50 23.2 89 18.5 21.3 15 20 1015.7 2 40.1 40.1 76.8 203.1 222.8 773.5
07/05 08:40 23 89 18.29 21.1 11 13 1015.7 2 39.6 39.7 76.0 201.0 220.1 764.1
07/05 08:30 22.9 89 18.19 21 17 22 1015.6 2 39.4 39.6 75.6 199.9 218.8 759.7
07/05 08:20 22.6 90 18.08 20.9 19 20 1015.6 2 39.2 39.5 75.4 199.3 218.0 756.7
07/05 08:10 22.2 93 18.26 21 13 17 1015.6 2 39.7 40.1 76.7 202.7 222.0 770.6
07/05 08:00 21.3 94 17.52 20.3 15 20 1015.5 2 38.2 39.1 74.0 195.6 212.9 739.0
07/05 07:50 20.9 96 17.48 20.2 15 19 1015.4 2 38.1 39.2 74.2 196.1 213.4 740.7
07/05 07:40 20.4 97 17.16 19.9 13 13 1015.3 2 37.5 38.8 73.1 193.2 209.8 728.0
07/05 07:30 20.3 97 17.06 19.8 11 15 1015.2 2 37.3 38.6 72.7 192.2 208.5 723.4
07/05 07:20 20.1 97 16.86 19.6 11 13 1015.1 2 36.9 38.3 71.9 190.1 205.9 714.4
07/05 07:10 19.9 98 16.84 19.6 13 15 1015 2 36.8 38.4 72.0 190.4 206.1 715.1
07/05 07:00 19.7 97 16.47 19.2 11 13 1014.8 2 36.1 37.7 70.4 186.1 200.8 696.7
07/05 06:50 19.7 98 16.64 19.4 11 13 1014.8 2 36.4 38.1 71.2 188.3 203.5 706.0
07/05 06:40 19.7 98 16.64 19.4 11 13 1014.7 2 36.4 38.1 71.2 188.3 203.5 705.9
07/05 06:30 19.6 97 16.37 19.1 13 17 1014.7 2 35.9 37.6 70.0 185.1 199.5 692.2
07/05 06:20 19.6 97 16.37 19.1 13 15 1014.6 2 35.9 37.6 70.0 185.1 199.5 692.1
07/05 06:10 19.7 97 16.47 19.2 13 15 1014.4 2 36.1 37.7 70.4 186.1 200.8 696.5
07/05 06:00 19.7 97 16.47 19.2 13 17 1014.3 2 36.1 37.7 70.4 186.0 200.8 696.5
07/05 05:50 19.8 97 16.57 19.3 13 17 1014.1 2 36.3 37.9 70.8 187.0 202.0 700.9
07/05 05:40 19.8 97 16.57 19.3 13 15 1014.1 2 36.3 37.9 70.8 187.0 202.0 700.9
07/05 05:30 19.7 97 16.47 19.2 13 15 1014 2 36.1 37.7 70.4 186.0 200.7 696.3
07/05 05:20 19.8 97 16.57 19.3 13 15 1014 2 36.3 37.9 70.8 187.0 202.0 700.8
07/05 05:10 19.7 97 16.47 19.2 13 17 1014 2 36.1 37.7 70.4 186.0 200.7 696.3
07/05 05:00 19.7 97 16.47 19.2 13 17 1014 2 36.1 37.7 70.4 186.0 200.7 696.3
07/05 04:50 19.7 97 16.47 19.2 13 15 1014 2 36.1 37.7 70.4 186.0 200.7 696.3
07/05 04:40 19.7 97 16.47 19.2 13 13 1013.9 2 36.1 37.7 70.4 186.0 200.7 696.3
07/05 04:30 19.8 97 16.57 19.3 11 15 1014 2 36.3 37.9 70.8 187.0 202.0 700.8
07/05 04:20 19.8 97 16.57 19.3 11 11 1013.8 2 36.3 37.8 70.8 187.0 202.0 700.7
07/05 04:10 19.9 97 16.66 19.4 11 11 1013.9 2 36.5 38.0 71.1 187.9 203.1 704.8
07/05 04:00 19.9 96 16.49 19.2 11 13 1013.9 2 36.1 37.7 70.3 185.7 200.5 695.5
07/05 03:50 19.9 96 16.49 19.2 9 11 1013.8 2 36.1 37.7 70.3 185.7 200.5 695.5
07/05 03:40 19.8 96 16.4 19.1 11 13 1013.9 2 35.9 37.5 69.9 184.8 199.4 691.6
07/05 03:30 19.9 96 16.49 19.2 11 15 1013.9 2 36.1 37.7 70.3 185.7 200.5 695.5
07/05 03:20 19.9 96 16.49 19.2 11 13 1014 2 36.1 37.7 70.3 185.8 200.5 695.6
07/05 03:10 19.9 96 16.49 19.2 11 13 1014.2 2 36.1 37.7 70.3 185.8 200.5 695.7
07/05 03:00 19.9 96 16.49 19.2 13 17 1014.2 2 36.1 37.7 70.3 185.8 200.5 695.7
07/05 02:50 19.9 95 16.32 19.1 13 15 1014.1 2 35.7 37.3 69.5 183.6 197.9 686.4
07/05 02:40 19.9 95 16.32 19.1 11 13 1014.1 2 35.7 37.3 69.5 183.6 197.9 686.4
07/05 02:30 19.9 95 16.32 19.1 11 15 1014.2 2 35.7 37.3 69.5 183.6 197.9 686.5
07/05 02:20 20 95 16.42 19.2 11 13 1014.3 2 35.9 37.5 69.9 184.7 199.2 691.0
07/05 02:10 20.1 95 16.51 19.3 13 15 1014.3 2 36.1 37.6 70.2 185.6 200.3 695.0
07/05 02:00 20.1 95 16.51 19.3 11 13 1014.2 2 36.1 37.6 70.2 185.5 200.3 694.9
07/05 01:50 20.2 95 16.61 19.4 11 11 1014.4 2 36.3 37.8 70.6 186.6 201.6 699.5
07/05 01:40 20.4 94 16.63 19.4 11 15 1014.4 2 36.3 37.7 70.5 186.4 201.4 698.7
07/05 01:30 20.5 94 16.72 19.5 9 13 1014.5 2 36.5 37.9 70.9 187.3 202.5 702.7

Last Refresh: 07-May-2026 17:46:20

Bureau of Meteorology